createdAt,value
2018-12-30T00:02:12.842Z,100576.48
2018-12-30T00:04:40.478Z,100579.87
2018-12-30T00:07:08.727Z,100578.89
2018-12-30T00:09:36.699Z,100568.47
2018-12-30T00:12:04.318Z,100559.64
2018-12-30T00:14:32.230Z,100570.52
2018-12-30T00:16:59.844Z,100560.34
2018-12-30T00:19:27.753Z,100570.83
2018-12-30T00:21:55.382Z,100573.69
2018-12-30T00:24:23.384Z,100565.34
2018-12-30T00:26:51.359Z,100569.75
2018-12-30T00:29:19.330Z,100580.08
2018-12-30T00:31:47.297Z,100568.64
2018-12-30T00:34:14.939Z,100568.70
2018-12-30T00:36:42.829Z,100566.33
2018-12-30T00:39:11.121Z,100563.77
2018-12-30T00:41:39.078Z,100558.33
2018-12-30T00:44:06.792Z,100558.33
2018-12-30T00:46:34.707Z,100554.63
2018-12-30T00:49:02.332Z,100568.07
2018-12-30T00:51:30.233Z,100558.86
2018-12-30T00:53:58.141Z,100555.00
2018-12-30T00:56:26.073Z,100555.30
2018-12-30T00:58:53.704Z,100561.47
2018-12-30T01:01:21.619Z,100565.58
2018-12-30T01:03:49.578Z,100564.30
2018-12-30T01:06:17.549Z,100564.89
2018-12-30T01:08:45.716Z,100576.27
2018-12-30T01:11:13.581Z,100557.91
2018-12-30T01:13:41.555Z,100542.76
2018-12-30T01:16:09.519Z,100542.76
2018-12-30T01:18:37.144Z,100561.31
2018-12-30T01:21:04.763Z,100559.38
2018-12-30T01:23:32.385Z,100552.54
2018-12-30T01:26:00.001Z,100560.02
2018-12-30T01:28:28.548Z,100560.02
2018-12-30T01:30:56.518Z,100547.98
2018-12-30T01:33:24.490Z,100557.20
2018-12-30T01:35:52.458Z,100564.95
2018-12-30T01:38:20.280Z,100555.02
2018-12-30T01:40:48.216Z,100564.55
2018-12-30T01:43:15.834Z,100558.38
2018-12-30T01:45:43.723Z,100558.86
2018-12-30T01:48:11.694Z,100560.05
2018-12-30T01:50:39.661Z,100560.05
2018-12-30T01:53:07.835Z,100565.27
2018-12-30T01:55:35.534Z,100577.35
2018-12-30T01:58:03.471Z,100562.85
2018-12-30T02:00:31.097Z,100562.85
2018-12-30T02:02:59.007Z,100560.69
2018-12-30T02:05:26.966Z,100552.92
2018-12-30T02:07:54.935Z,100553.88
2018-12-30T02:10:22.820Z,100544.74
2018-12-30T02:12:50.780Z,100547.95
2018-12-30T02:15:18.743Z,100551.86
2018-12-30T02:17:46.714Z,100551.86
2018-12-30T02:20:15.000Z,100550.67
2018-12-30T02:22:42.622Z,100549.95
2018-12-30T02:25:10.254Z,100549.95
2018-12-30T02:27:38.198Z,100545.25
2018-12-30T02:30:06.159Z,100553.89
2018-12-30T02:32:33.771Z,100544.17
2018-12-30T02:35:01.413Z,100547.46
2018-12-30T02:37:29.344Z,100545.23
2018-12-30T02:39:57.009Z,100542.48
2018-12-30T02:42:24.616Z,100536.46
2018-12-30T02:44:52.539Z,100536.46
2018-12-30T02:47:20.437Z,100536.54
2018-12-30T02:49:48.132Z,100530.52
2018-12-30T02:52:16.045Z,100535.75
2018-12-30T02:54:43.679Z,100536.70
2018-12-30T02:57:11.299Z,100523.42
2018-12-30T02:59:39.229Z,100527.66
2018-12-30T03:02:07.196Z,100532.06
2018-12-30T03:04:34.829Z,100525.49
2018-12-30T03:07:02.725Z,100529.59
2018-12-30T03:09:30.698Z,100527.72
2018-12-30T03:11:58.315Z,100528.77
2018-12-30T03:14:26.330Z,100523.64
2018-12-30T03:16:54.031Z,100519.98
2018-12-30T03:19:21.662Z,100509.97
2018-12-30T03:21:49.724Z,100518.95
2018-12-30T03:24:17.352Z,100511.56
2018-12-30T03:26:45.263Z,100507.87
2018-12-30T03:29:12.887Z,100509.80
2018-12-30T03:31:40.871Z,100508.36
2018-12-30T03:34:08.474Z,100499.23
2018-12-30T03:36:36.434Z,100508.99
2018-12-30T03:39:04.596Z,100508.99
2018-12-30T03:41:32.298Z,100505.94
2018-12-30T03:44:00.222Z,100504.02
2018-12-30T03:46:27.853Z,100491.19
2018-12-30T03:48:55.755Z,100498.25
2018-12-30T03:51:23.395Z,100497.53
2018-12-30T03:53:51.282Z,100491.84
2018-12-30T03:56:18.906Z,100499.92
2018-12-30T03:58:46.528Z,100501.00
2018-12-30T04:01:14.232Z,100490.55
2018-12-30T04:03:42.140Z,100495.77
2018-12-30T04:06:10.108Z,100488.48
2018-12-30T04:08:37.724Z,100502.28
2018-12-30T04:11:05.658Z,100501.95
2018-12-30T04:13:33.608Z,100501.64
2018-12-30T04:16:01.579Z,100499.23
2018-12-30T04:18:29.650Z,100511.26
2018-12-30T04:20:57.292Z,100504.66
2018-12-30T04:23:25.180Z,100512.60
2018-12-30T04:25:53.231Z,100512.60
2018-12-30T04:28:20.841Z,100508.69
2018-12-30T04:30:48.470Z,100503.38
2018-12-30T04:33:16.445Z,100515.41
2018-12-30T04:35:44.409Z,100515.41
2018-12-30T04:38:12.486Z,100515.41
2018-12-30T04:40:40.108Z,100514.77
2018-12-30T04:43:08.018Z,100514.77
2018-12-30T04:45:36.089Z,100520.88
2018-12-30T04:48:03.708Z,100520.25
2018-12-30T04:50:31.617Z,100522.16
2018-12-30T04:52:59.687Z,100514.69
2018-12-30T04:55:27.662Z,100510.14
2018-12-30T04:57:55.290Z,100516.55
2018-12-30T05:00:23.227Z,100515.91
2018-12-30T05:02:51.154Z,100522.38
2018-12-30T05:05:18.788Z,100521.19
2018-12-30T05:07:46.685Z,100522.17
2018-12-30T05:10:14.655Z,100522.17
2018-12-30T05:12:42.275Z,100526.33
2018-12-30T05:15:10.204Z,100533.09
2018-12-30T05:17:38.154Z,100527.77
2018-12-30T05:20:06.128Z,100538.92
2018-12-30T05:22:34.235Z,100537.98
2018-12-30T05:25:02.089Z,100531.47
2018-12-30T05:27:30.134Z,100545.37
2018-12-30T05:29:57.767Z,100545.37
2018-12-30T05:32:25.403Z,100554.76
2018-12-30T05:34:53.432Z,100552.13
2018-12-30T05:37:21.066Z,100562.80
2018-12-30T05:39:48.691Z,100569.21
2018-12-30T05:42:16.321Z,100576.77
2018-12-30T05:44:44.307Z,100570.89
2018-12-30T05:47:12.257Z,100580.61
2018-12-30T05:49:39.869Z,100580.61
2018-12-30T05:52:07.786Z,100578.48
2018-12-30T05:54:36.266Z,100580.75
2018-12-30T05:57:04.254Z,100583.86
2018-12-30T05:59:32.313Z,100595.12
2018-12-30T06:02:00.287Z,100603.47
2018-12-30T06:04:27.895Z,100606.98
2018-12-30T06:06:55.527Z,100612.61
2018-12-30T06:09:23.469Z,100617.20
2018-12-30T06:11:51.438Z,100626.83
2018-12-30T06:14:19.515Z,100632.52
2018-12-30T06:16:47.481Z,100632.52
2018-12-30T06:19:15.653Z,100647.13
2018-12-30T06:21:43.275Z,100637.11
2018-12-30T06:24:11.188Z,100659.64
2018-12-30T06:26:38.824Z,100675.23
2018-12-30T06:29:06.709Z,100680.77
2018-12-30T06:31:34.701Z,100680.77
2018-12-30T06:34:02.316Z,100689.24
2018-12-30T06:36:29.942Z,100700.63
2018-12-30T06:38:57.873Z,100713.59
2018-12-30T06:41:26.048Z,100713.59
2018-12-30T06:43:53.665Z,100717.74
2018-12-30T06:46:21.585Z,100717.58
2018-12-30T06:48:49.211Z,100724.56
2018-12-30T06:51:17.106Z,100743.19
2018-12-30T06:53:45.080Z,100741.41
2018-12-30T06:56:13.049Z,100747.03
2018-12-30T06:58:41.017Z,100747.03
2018-12-30T07:01:08.645Z,100750.69
2018-12-30T07:03:36.569Z,100750.55
2018-12-30T07:06:04.526Z,100750.55
2018-12-30T07:08:32.490Z,100759.47
2018-12-30T07:11:00.454Z,100766.22
2018-12-30T07:13:28.428Z,100780.53
2018-12-30T07:15:56.074Z,100780.53
2018-12-30T07:18:23.962Z,100788.19
2018-12-30T07:20:51.581Z,100788.19
2018-12-30T07:23:19.283Z,100785.16
2018-12-30T07:25:47.250Z,100795.22
2018-12-30T07:28:15.219Z,100791.38
2018-12-30T07:30:43.190Z,100790.94
2018-12-30T07:33:10.821Z,100795.84
2018-12-30T07:35:38.719Z,100806.98
2018-12-30T07:38:06.358Z,100811.23
2018-12-30T07:40:34.246Z,100814.79
2018-12-30T07:43:01.890Z,100814.00
2018-12-30T07:45:29.515Z,100819.92
2018-12-30T07:47:57.145Z,100818.64
2018-12-30T07:50:25.103Z,100825.55
2018-12-30T07:52:52.737Z,100833.03
2018-12-30T07:55:20.732Z,100832.35
2018-12-30T07:57:48.704Z,100841.60
2018-12-30T08:00:16.329Z,100840.12
2018-12-30T08:02:44.238Z,100853.34
2018-12-30T08:05:11.864Z,100857.62
2018-12-30T08:07:39.761Z,100873.01
2018-12-30T08:10:07.731Z,100873.01
2018-12-30T08:12:35.702Z,100859.30
2018-12-30T08:15:03.678Z,100879.00
2018-12-30T08:17:31.790Z,100887.12
2018-12-30T08:19:59.437Z,100899.67
2018-12-30T08:22:27.046Z,100906.20
2018-12-30T08:24:54.939Z,100906.20
2018-12-30T08:27:23.230Z,100904.87
2018-12-30T08:29:51.184Z,100917.74
2018-12-30T08:32:19.164Z,100917.48
2018-12-30T08:34:47.121Z,100921.66
2018-12-30T08:37:15.094Z,100938.28
2018-12-30T08:39:42.722Z,100939.72
2018-12-30T08:42:10.345Z,100940.50
2018-12-30T08:44:38.288Z,100953.90
2018-12-30T08:47:06.277Z,100960.63
2018-12-30T08:49:34.221Z,100978.09
2018-12-30T08:52:02.199Z,100978.09
2018-12-30T08:54:30.180Z,100985.51
2018-12-30T08:56:57.802Z,101002.44
2018-12-30T08:59:25.691Z,101002.44
2018-12-30T09:01:53.665Z,101008.45
2018-12-30T09:04:21.285Z,101012.41
2018-12-30T09:06:48.932Z,101014.08
2018-12-30T09:09:16.856Z,101022.49
2018-12-30T09:11:44.935Z,101038.06
2018-12-30T09:14:12.900Z,101034.61
2018-12-30T09:16:40.874Z,101039.45
2018-12-30T09:19:08.854Z,101054.75
2018-12-30T09:21:36.480Z,101054.75
2018-12-30T09:24:04.300Z,101056.92
2018-12-30T09:26:32.354Z,101068.86
2018-12-30T09:28:59.978Z,101072.91
2018-12-30T09:31:27.865Z,101072.13
2018-12-30T09:33:55.489Z,101061.97
2018-12-30T09:36:23.104Z,101071.23
2018-12-30T09:38:51.059Z,101073.33
2018-12-30T09:41:18.923Z,101085.56
2018-12-30T09:43:46.795Z,101084.00
2018-12-30T09:46:14.768Z,101096.83
2018-12-30T09:48:42.834Z,101090.33
2018-12-30T09:51:10.909Z,101090.33
2018-12-30T09:53:45.028Z,101093.14
2018-12-30T09:56:07.919Z,101093.14
2018-12-30T09:58:36.150Z,101100.77
2018-12-30T10:01:04.125Z,101100.77
2018-12-30T10:03:32.083Z,101119.91
2018-12-30T10:05:59.702Z,101116.53
2018-12-30T10:08:27.343Z,101117.03
2018-12-30T10:10:54.957Z,101124.84
2018-12-30T10:13:22.940Z,101125.05
2018-12-30T10:15:51.930Z,101125.05
2018-12-30T10:18:19.918Z,101126.20
2018-12-30T10:20:47.881Z,101127.09
2018-12-30T10:23:15.492Z,101130.86
2018-12-30T10:25:43.405Z,101138.74
2018-12-30T10:28:11.371Z,101124.42
2018-12-30T10:30:39.358Z,101132.70
2018-12-30T10:33:07.434Z,101130.42
2018-12-30T10:35:35.386Z,101129.23
2018-12-30T10:38:03.028Z,101136.16
2018-12-30T10:40:31.013Z,101136.16
2018-12-30T10:42:58.991Z,101137.77
2018-12-30T10:45:26.607Z,101143.27
2018-12-30T10:47:54.516Z,101142.70
2018-12-30T10:50:22.484Z,101134.50
2018-12-30T10:52:50.466Z,101145.81
2018-12-30T10:55:18.074Z,101140.12
2018-12-30T10:57:46.192Z,101137.25
2018-12-30T11:00:14.157Z,101137.25
2018-12-30T11:02:41.788Z,101143.75
2018-12-30T11:05:09.407Z,101143.75
2018-12-30T11:07:37.020Z,101140.58
2018-12-30T11:10:04.641Z,101138.58
2018-12-30T11:12:32.590Z,101142.78
2018-12-30T11:15:00.219Z,101140.22
2018-12-30T11:17:28.510Z,101140.22
2018-12-30T11:19:56.485Z,101136.08
2018-12-30T11:22:24.450Z,101139.44
2018-12-30T11:24:52.425Z,101137.36
2018-12-30T11:27:20.389Z,101129.77
2018-12-30T11:29:48.005Z,101138.94
2018-12-30T11:32:15.917Z,101138.08
2018-12-30T11:34:43.895Z,101139.14
2018-12-30T11:37:11.509Z,101137.05
2018-12-30T11:39:39.129Z,101138.54
2018-12-30T11:42:06.742Z,101134.19
2018-12-30T11:44:34.644Z,101146.92
2018-12-30T11:47:02.630Z,101133.08
2018-12-30T11:49:30.262Z,101131.58
2018-12-30T11:51:58.245Z,101131.25
2018-12-30T11:54:26.215Z,101128.29
2018-12-30T11:56:53.834Z,101128.29
2018-12-30T11:59:21.747Z,101140.52
2018-12-30T12:01:49.363Z,101142.09
2018-12-30T12:04:16.992Z,101137.01
2018-12-30T12:06:44.631Z,101126.22
2018-12-30T12:09:12.595Z,101126.22
2018-12-30T12:11:40.213Z,101139.80
2018-12-30T12:14:08.127Z,101139.80
2018-12-30T12:16:35.747Z,101144.61
2018-12-30T12:19:03.478Z,101153.39
2018-12-30T12:21:31.418Z,101138.97
2018-12-30T12:23:59.044Z,101143.33
2018-12-30T12:26:26.663Z,101136.23
2018-12-30T12:28:54.618Z,101140.02
2018-12-30T12:31:22.248Z,101141.09
2018-12-30T12:33:52.232Z,101141.81
2018-12-30T12:36:20.165Z,101124.33
2018-12-30T12:38:48.131Z,101117.12
2018-12-30T12:41:15.858Z,101134.55
2018-12-30T12:43:43.766Z,101134.16
2018-12-30T12:46:11.380Z,101136.95
2018-12-30T12:48:39.294Z,101123.50
2018-12-30T12:51:07.263Z,101130.87
2018-12-30T12:53:35.230Z,101132.75
2018-12-30T12:56:03.116Z,101122.14
2018-12-30T12:58:31.086Z,101130.41
2018-12-30T13:00:59.035Z,101137.22
2018-12-30T13:03:27.011Z,101140.95
2018-12-30T13:05:54.654Z,101139.34
2018-12-30T13:08:22.536Z,101131.95
2018-12-30T13:10:50.508Z,101144.98
2018-12-30T13:13:18.137Z,101149.01
2018-12-30T13:15:46.008Z,101159.07
2018-12-30T13:18:14.003Z,101146.02
2018-12-30T13:20:42.060Z,101146.02
2018-12-30T13:23:09.946Z,101155.81
2018-12-30T13:25:37.918Z,101150.17
2018-12-30T13:28:05.882Z,101156.87
2018-12-30T13:30:33.578Z,101152.61
2018-12-30T13:33:01.192Z,101165.60
2018-12-30T13:35:29.094Z,101161.34
2018-12-30T13:37:57.047Z,101167.83
2018-12-30T13:40:24.669Z,101167.01
2018-12-30T13:42:52.575Z,101184.34
2018-12-30T13:45:20.195Z,101159.58
2018-12-30T13:47:48.108Z,101185.83
2018-12-30T13:50:16.180Z,101182.94
2018-12-30T13:52:43.842Z,101185.28
2018-12-30T13:55:11.826Z,101179.47
2018-12-30T13:57:39.896Z,101179.18
2018-12-30T14:00:07.522Z,101179.86
2018-12-30T14:02:35.412Z,101187.78
2018-12-30T14:05:03.046Z,101189.53
2018-12-30T14:07:30.681Z,101202.94
2018-12-30T14:09:58.604Z,101205.78
2018-12-30T14:12:26.588Z,101214.12
2018-12-30T14:14:54.665Z,101208.16
2018-12-30T14:17:22.275Z,101213.02
2018-12-30T14:19:50.198Z,101209.59
2018-12-30T14:22:17.824Z,101215.02
2018-12-30T14:24:46.729Z,101217.71
2018-12-30T14:27:14.342Z,101217.71
2018-12-30T14:29:42.260Z,101215.02
2018-12-30T14:32:09.876Z,101214.23
2018-12-30T14:34:37.791Z,101205.85
2018-12-30T14:37:05.871Z,101215.69
2018-12-30T14:39:33.830Z,101215.12
2018-12-30T14:42:01.456Z,101226.30
2018-12-30T14:44:29.079Z,101237.37
2018-12-30T14:46:56.701Z,101232.74
2018-12-30T14:49:24.586Z,101240.45
2018-12-30T14:51:52.552Z,101230.96
2018-12-30T14:54:20.629Z,101247.32
2018-12-30T14:56:48.598Z,101242.89
2018-12-30T14:59:16.213Z,101237.94
2018-12-30T15:01:44.125Z,101243.97
2018-12-30T15:04:11.745Z,101238.83
2018-12-30T15:06:39.652Z,101244.47
2018-12-30T15:09:07.271Z,101248.33
2018-12-30T15:11:34.895Z,101255.75
2018-12-30T15:14:02.844Z,101246.36
2018-12-30T15:16:30.922Z,101254.86
2018-12-30T15:18:58.533Z,101262.78
2018-12-30T15:21:26.447Z,101256.20
2018-12-30T15:23:54.060Z,101258.89
2018-12-30T15:26:21.676Z,101264.06
2018-12-30T15:28:49.643Z,101258.70
2018-12-30T15:31:17.612Z,101258.11
2018-12-30T15:33:45.228Z,101261.74
2018-12-30T15:36:12.846Z,101256.53
2018-12-30T15:38:40.458Z,101258.11
2018-12-30T15:41:08.086Z,101274.53
2018-12-30T15:43:36.022Z,101266.89
2018-12-30T15:46:03.996Z,101266.89
2018-12-30T15:48:31.606Z,101262.78
2018-12-30T15:50:59.521Z,101264.31
2018-12-30T15:53:27.143Z,101271.06
2018-12-30T15:55:54.761Z,101260.67
2018-12-30T15:58:22.377Z,101266.03
2018-12-30T16:00:49.999Z,101277.38
2018-12-30T16:03:17.954Z,101274.03
2018-12-30T16:05:45.665Z,101276.09
2018-12-30T16:08:13.281Z,101278.38
2018-12-30T16:10:40.903Z,101286.88
2018-12-30T16:13:08.519Z,101284.42
2018-12-30T16:15:36.451Z,101270.99
2018-12-30T16:18:04.339Z,101290.73
2018-12-30T16:20:31.963Z,101295.16
2018-12-30T16:22:59.854Z,101292.23
2018-12-30T16:25:27.624Z,101289.27
2018-12-30T16:27:55.502Z,101288.59
2018-12-30T16:30:23.454Z,101300.84
2018-12-30T16:32:51.425Z,101302.41
2018-12-30T16:35:19.127Z,101303.80
2018-12-30T16:37:46.737Z,101309.05
2018-12-30T16:40:14.615Z,101303.20
2018-12-30T16:42:42.584Z,101327.52
2018-12-30T16:45:10.193Z,101315.34
2018-12-30T16:47:41.801Z,101314.87
2018-12-30T16:50:07.432Z,101333.47
2018-12-30T16:52:35.388Z,101331.44
2018-12-30T16:55:03.251Z,101344.83
2018-12-30T16:57:30.879Z,101336.72
2018-12-30T16:59:58.786Z,101344.44
2018-12-30T17:02:26.765Z,101344.03
2018-12-30T17:04:54.720Z,101353.22
2018-12-30T17:07:22.352Z,101353.83
2018-12-30T17:09:50.252Z,101352.83
2018-12-30T17:12:18.219Z,101361.75
2018-12-30T17:14:46.189Z,101356.86
2018-12-30T17:17:13.815Z,101354.39
2018-12-30T17:19:41.717Z,101354.29
2018-12-30T17:22:09.352Z,101354.29
2018-12-30T17:24:37.244Z,101352.14
2018-12-30T17:27:05.304Z,101348.67
2018-12-30T17:29:33.186Z,101347.89
2018-12-30T17:32:02.178Z,101353.22
2018-12-30T17:34:29.948Z,101351.05
2018-12-30T17:36:57.921Z,101354.08
2018-12-30T17:39:25.885Z,101344.44
2018-12-30T17:41:53.506Z,101361.53
2018-12-30T17:44:21.414Z,101362.21
2018-12-30T17:46:49.403Z,101357.00
2018-12-30T17:49:17.363Z,101357.81
2018-12-30T17:51:45.321Z,101365.20
2018-12-30T17:54:15.326Z,101360.56
2018-12-30T17:56:42.259Z,101357.98
2018-12-30T17:59:09.865Z,101350.38
2018-12-30T18:01:37.485Z,101343.06
2018-12-30T18:04:05.380Z,101341.65
2018-12-30T18:06:33.347Z,101355.00
2018-12-30T18:09:00.958Z,101359.75
2018-12-30T18:11:28.977Z,101354.02
2018-12-30T18:13:56.847Z,101354.02
2018-12-30T18:16:24.813Z,101364.31
2018-12-30T18:18:52.681Z,101373.18
2018-12-30T18:21:20.305Z,101378.63
2018-12-30T18:23:47.925Z,101382.22
2018-12-30T18:26:15.921Z,101383.40
2018-12-30T18:28:43.841Z,101393.66
2018-12-30T18:31:11.715Z,101393.79
2018-12-30T18:33:39.577Z,101390.02
2018-12-30T18:36:07.205Z,101395.76
2018-12-30T18:38:34.811Z,101413.14
2018-12-30T18:41:02.779Z,101402.78
2018-12-30T18:43:30.401Z,101406.64
2018-12-30T18:45:58.298Z,101409.13
2018-12-30T18:48:26.169Z,101415.81
2018-12-30T18:50:54.033Z,101429.17
2018-12-30T18:53:22.007Z,101429.17
2018-12-30T18:55:49.633Z,101422.14
2018-12-30T18:58:17.536Z,101429.16
2018-12-30T19:00:45.420Z,101434.11
2018-12-30T19:03:13.039Z,101427.30
2018-12-30T19:05:40.937Z,101422.25
2018-12-30T19:08:08.797Z,101437.67
2018-12-30T19:10:36.769Z,101426.29
2018-12-30T19:13:04.738Z,101422.44
2018-12-30T19:15:32.767Z,101425.51
2018-12-30T19:18:00.625Z,101432.33
2018-12-30T19:20:28.547Z,101430.26
2018-12-30T19:22:56.823Z,101431.94
2018-12-30T19:25:24.904Z,101431.94
2018-12-30T19:27:53.416Z,101421.38
2018-12-30T19:30:21.361Z,101430.55
2018-12-30T19:32:49.024Z,101425.83
2018-12-30T19:35:16.981Z,101424.92
2018-12-30T19:37:45.052Z,101424.92
2018-12-30T19:40:12.666Z,101421.26
2018-12-30T19:42:40.599Z,101421.26
2018-12-30T19:45:08.549Z,101429.28
2018-12-30T19:47:36.174Z,101441.03
2018-12-30T19:50:03.863Z,101450.80
2018-12-30T19:52:31.492Z,101439.03
2018-12-30T19:54:59.401Z,101456.04
2018-12-30T19:57:27.379Z,101456.04
2018-12-30T19:59:55.367Z,101456.04
2018-12-30T20:02:23.313Z,101449.62
2018-12-30T20:04:51.188Z,101450.02
2018-12-30T20:07:19.171Z,101449.78
2018-12-30T20:09:46.788Z,101453.87
2018-12-30T20:12:14.683Z,101449.20
2018-12-30T20:14:43.532Z,101434.09
2018-12-30T20:17:11.441Z,101434.09
2018-12-30T20:19:39.053Z,101442.89
2018-12-30T20:22:06.972Z,101438.34
2018-12-30T20:24:34.836Z,101428.27
2018-12-30T20:27:02.811Z,101426.39
2018-12-30T20:29:30.783Z,101411.69
2018-12-30T20:31:58.751Z,101411.69
2018-12-30T20:34:26.773Z,101421.37
2018-12-30T20:36:54.991Z,101437.56
2018-12-30T20:39:22.614Z,101432.62
2018-12-30T20:41:50.233Z,101430.75
2018-12-30T20:44:18.188Z,101430.36
2018-12-30T20:46:46.154Z,101430.36
2018-12-30T20:49:13.846Z,101423.71
2018-12-30T20:51:41.787Z,101427.48
2018-12-30T20:54:09.403Z,101427.48
2018-12-30T20:56:37.774Z,101426.20
2018-12-30T20:59:05.712Z,101416.81
2018-12-30T21:01:33.661Z,101423.94
2018-12-30T21:04:01.284Z,101435.58
2018-12-30T21:06:28.903Z,101415.12
2018-12-30T21:08:56.857Z,101423.83
2018-12-30T21:11:24.825Z,101423.71
2018-12-30T21:13:52.464Z,101441.80
2018-12-30T21:16:20.357Z,101441.80
2018-12-30T21:18:47.975Z,101436.47
2018-12-30T21:21:16.194Z,101435.27
2018-12-30T21:23:44.177Z,101440.80
2018-12-30T21:26:12.128Z,101438.31
2018-12-30T21:28:39.762Z,101444.94
2018-12-30T21:31:07.460Z,101447.11
2018-12-30T21:33:35.155Z,101453.87
2018-12-30T21:36:02.777Z,101445.36
2018-12-30T21:38:30.401Z,101445.36
2018-12-30T21:40:58.021Z,101457.00
2018-12-30T21:43:25.999Z,101457.00
2018-12-30T22:00:32.032Z,101471.85
2018-12-30T22:02:59.667Z,101474.44
2018-12-30T22:05:27.562Z,101472.62
2018-12-30T22:07:55.538Z,101472.62
2018-12-30T22:10:23.400Z,101480.50
2018-12-30T22:12:51.034Z,101480.50
2018-12-30T22:15:18.661Z,101488.14
2018-12-30T22:17:46.295Z,101488.02
2018-12-30T22:20:14.256Z,101489.30
2018-12-30T22:22:41.883Z,101483.27
2018-12-30T22:25:09.785Z,101479.75
2018-12-30T22:27:37.753Z,101490.91
2018-12-30T22:30:05.377Z,101505.48
2018-12-30T22:32:33.283Z,101501.87
2018-12-30T22:35:01.255Z,101498.98
2018-12-30T22:37:28.869Z,101495.23
2018-12-30T22:39:56.790Z,101495.23
2018-12-30T22:42:32.534Z,101504.69
2018-12-30T22:44:54.050Z,101509.29
2018-12-30T22:47:21.673Z,101509.29
2018-12-30T22:49:49.586Z,101510.66
2018-12-30T22:52:17.551Z,101518.80
2018-12-30T22:54:45.173Z,101516.50
2018-12-30T22:57:12.811Z,101516.60
2018-12-30T22:59:40.742Z,101509.53
2018-12-30T23:02:08.709Z,101509.53
2018-12-30T23:04:36.335Z,101509.02
2018-12-30T23:07:03.963Z,101509.02
2018-12-30T23:09:31.921Z,101500.11
2018-12-30T23:11:59.537Z,101500.11
2018-12-30T23:14:27.538Z,101514.54
2018-12-30T23:16:55.817Z,101501.54
2018-12-30T23:19:23.443Z,101512.44
2018-12-30T23:21:51.446Z,101510.20
2018-12-30T23:24:19.083Z,101527.35
2018-12-30T23:26:46.973Z,101512.06
2018-12-30T23:29:14.948Z,101512.06
2018-12-30T23:31:42.919Z,101520.03
2018-12-30T23:34:10.552Z,101519.19
2018-12-30T23:36:38.448Z,101518.18
2018-12-30T23:39:06.073Z,101509.98
2018-12-30T23:41:33.699Z,101522.98
2018-12-30T23:44:01.350Z,101528.11
2018-12-30T23:46:29.299Z,101532.25
2018-12-30T23:48:57.272Z,101532.30
2018-12-30T23:51:25.242Z,101535.77
2018-12-30T23:53:52.883Z,101537.19
2018-12-30T23:56:20.873Z,101522.28
2018-12-30T23:58:48.493Z,101521.61
